sensor_id;sensor_type;location;lat;lon;timestamp;P1;durP1;ratioP1;P2;durP2;ratioP2
4138;SDS011;2083;51.034;6.996;2022-08-20T00:00:49;2.90;;;2.80;;
4138;SDS011;2083;51.034;6.996;2022-08-20T00:03:19;3.30;;;3.10;;
4138;SDS011;2083;51.034;6.996;2022-08-20T00:05:47;3.23;;;2.93;;
4138;SDS011;2083;51.034;6.996;2022-08-20T00:08:15;5.90;;;2.97;;
4138;SDS011;2083;51.034;6.996;2022-08-20T00:10:42;4.30;;;3.40;;
4138;SDS011;2083;51.034;6.996;2022-08-20T00:13:10;5.27;;;3.40;;
4138;SDS011;2083;51.034;6.996;2022-08-20T00:15:36;5.33;;;3.63;;
4138;SDS011;2083;51.034;6.996;2022-08-20T00:18:03;3.40;;;3.20;;
4138;SDS011;2083;51.034;6.996;2022-08-20T00:20:31;4.63;;;4.23;;
4138;SDS011;2083;51.034;6.996;2022-08-20T00:22:57;4.67;;;4.17;;
4138;SDS011;2083;51.034;6.996;2022-08-20T00:25:24;4.57;;;4.27;;
4138;SDS011;2083;51.034;6.996;2022-08-20T00:27:50;4.97;;;4.60;;
4138;SDS011;2083;51.034;6.996;2022-08-20T00:30:17;6.20;;;4.40;;
4138;SDS011;2083;51.034;6.996;2022-08-20T00:33:03;4.63;;;4.43;;
4138;SDS011;2083;51.034;6.996;2022-08-20T00:35:31;4.83;;;4.43;;
4138;SDS011;2083;51.034;6.996;2022-08-20T00:37:58;6.70;;;4.60;;
4138;SDS011;2083;51.034;6.996;2022-08-20T00:40:26;4.67;;;4.17;;
4138;SDS011;2083;51.034;6.996;2022-08-20T00:42:54;6.83;;;5.03;;
4138;SDS011;2083;51.034;6.996;2022-08-20T00:45:23;4.60;;;4.40;;
4138;SDS011;2083;51.034;6.996;2022-08-20T00:47:49;5.80;;;5.00;;
4138;SDS011;2083;51.034;6.996;2022-08-20T00:50:17;5.07;;;4.87;;
4138;SDS011;2083;51.034;6.996;2022-08-20T00:52:44;7.50;;;4.90;;
4138;SDS011;2083;51.034;6.996;2022-08-20T00:55:11;7.00;;;6.33;;
4138;SDS011;2083;51.034;6.996;2022-08-20T00:57:41;5.33;;;5.03;;
4138;SDS011;2083;51.034;6.996;2022-08-20T01:00:12;5.40;;;4.97;;
4138;SDS011;2083;51.034;6.996;2022-08-20T01:02:39;5.27;;;4.87;;
4138;SDS011;2083;51.034;6.996;2022-08-20T01:05:06;5.10;;;4.80;;
4138;SDS011;2083;51.034;6.996;2022-08-20T01:07:33;5.00;;;4.80;;
4138;SDS011;2083;51.034;6.996;2022-08-20T01:10:00;5.87;;;5.20;;
4138;SDS011;2083;51.034;6.996;2022-08-20T01:12:29;5.00;;;4.60;;
4138;SDS011;2083;51.034;6.996;2022-08-20T01:14:56;3.50;;;3.30;;
4138;SDS011;2083;51.034;6.996;2022-08-20T01:17:24;4.70;;;4.40;;
4138;SDS011;2083;51.034;6.996;2022-08-20T01:19:57;6.00;;;5.10;;
4138;SDS011;2083;51.034;6.996;2022-08-20T01:22:27;4.97;;;4.60;;
4138;SDS011;2083;51.034;6.996;2022-08-20T01:25:16;4.13;;;3.80;;
4138;SDS011;2083;51.034;6.996;2022-08-20T01:27:45;5.30;;;5.00;;
4138;SDS011;2083;51.034;6.996;2022-08-20T01:30:11;7.03;;;4.87;;
4138;SDS011;2083;51.034;6.996;2022-08-20T01:32:37;5.00;;;4.60;;
4138;SDS011;2083;51.034;6.996;2022-08-20T01:35:03;4.80;;;4.33;;
4138;SDS011;2083;51.034;6.996;2022-08-20T01:37:30;4.80;;;4.60;;
4138;SDS011;2083;51.034;6.996;2022-08-20T01:39:55;4.90;;;4.50;;
4138;SDS011;2083;51.034;6.996;2022-08-20T01:42:24;4.83;;;4.43;;
4138;SDS011;2083;51.034;6.996;2022-08-20T01:44:52;4.33;;;3.90;;
4138;SDS011;2083;51.034;6.996;2022-08-20T01:47:19;4.20;;;4.00;;
4138;SDS011;2083;51.034;6.996;2022-08-20T01:49:47;4.00;;;3.90;;
4138;SDS011;2083;51.034;6.996;2022-08-20T01:52:19;4.47;;;4.20;;
4138;SDS011;2083;51.034;6.996;2022-08-20T01:54:46;4.07;;;3.87;;
4138;SDS011;2083;51.034;6.996;2022-08-20T01:57:14;4.73;;;4.30;;
4138;SDS011;2083;51.034;6.996;2022-08-20T01:59:40;4.47;;;4.17;;
4138;SDS011;2083;51.034;6.996;2022-08-20T02:02:06;4.20;;;3.90;;
4138;SDS011;2083;51.034;6.996;2022-08-20T02:04:32;7.83;;;4.27;;
4138;SDS011;2083;51.034;6.996;2022-08-20T02:06:59;4.93;;;4.73;;
4138;SDS011;2083;51.034;6.996;2022-08-20T02:09:31;4.03;;;3.83;;
4138;SDS011;2083;51.034;6.996;2022-08-20T02:11:57;3.93;;;3.83;;
4138;SDS011;2083;51.034;6.996;2022-08-20T02:14:24;3.97;;;3.80;;
4138;SDS011;2083;51.034;6.996;2022-08-20T02:16:50;4.37;;;3.90;;
4138;SDS011;2083;51.034;6.996;2022-08-20T02:19:20;3.83;;;3.73;;
4138;SDS011;2083;51.034;6.996;2022-08-20T02:21:50;3.90;;;3.60;;
4138;SDS011;2083;51.034;6.996;2022-08-20T02:24:16;5.87;;;4.23;;
4138;SDS011;2083;51.034;6.996;2022-08-20T02:26:43;4.20;;;3.80;;
4138;SDS011;2083;51.034;6.996;2022-08-20T02:29:10;4.03;;;3.63;;
4138;SDS011;2083;51.034;6.996;2022-08-20T02:31:37;3.93;;;3.63;;
4138;SDS011;2083;51.034;6.996;2022-08-20T02:34:04;3.37;;;3.27;;
4138;SDS011;2083;51.034;6.996;2022-08-20T02:36:32;4.60;;;3.53;;
4138;SDS011;2083;51.034;6.996;2022-08-20T02:39:00;3.60;;;3.40;;
4138;SDS011;2083;51.034;6.996;2022-08-20T02:41:26;4.40;;;4.00;;
4138;SDS011;2083;51.034;6.996;2022-08-20T02:43:52;3.30;;;3.20;;
4138;SDS011;2083;51.034;6.996;2022-08-20T02:46:18;3.90;;;3.70;;
4138;SDS011;2083;51.034;6.996;2022-08-20T02:48:44;4.00;;;3.80;;
4138;SDS011;2083;51.034;6.996;2022-08-20T02:51:10;3.73;;;3.63;;
4138;SDS011;2083;51.034;6.996;2022-08-20T02:53:37;3.63;;;3.47;;
4138;SDS011;2083;51.034;6.996;2022-08-20T02:56:05;3.93;;;3.73;;
4138;SDS011;2083;51.034;6.996;2022-08-20T02:58:31;4.87;;;4.30;;
4138;SDS011;2083;51.034;6.996;2022-08-20T03:00:59;4.07;;;3.77;;
4138;SDS011;2083;51.034;6.996;2022-08-20T03:03:25;3.67;;;3.47;;
4138;SDS011;2083;51.034;6.996;2022-08-20T03:05:52;3.77;;;3.57;;
4138;SDS011;2083;51.034;6.996;2022-08-20T03:08:19;4.30;;;4.03;;
4138;SDS011;2083;51.034;6.996;2022-08-20T03:10:45;3.97;;;3.60;;
4138;SDS011;2083;51.034;6.996;2022-08-20T03:13:12;3.73;;;3.53;;
4138;SDS011;2083;51.034;6.996;2022-08-20T03:15:39;4.73;;;3.90;;
4138;SDS011;2083;51.034;6.996;2022-08-20T03:18:07;3.07;;;2.97;;
4138;SDS011;2083;51.034;6.996;2022-08-20T03:20:33;4.27;;;3.77;;
4138;SDS011;2083;51.034;6.996;2022-08-20T03:22:59;3.90;;;3.60;;
4138;SDS011;2083;51.034;6.996;2022-08-20T03:25:25;3.77;;;3.50;;
4138;SDS011;2083;51.034;6.996;2022-08-20T03:27:51;3.47;;;3.10;;
4138;SDS011;2083;51.034;6.996;2022-08-20T03:30:17;6.27;;;3.50;;
4138;SDS011;2083;51.034;6.996;2022-08-20T03:32:43;2.80;;;2.33;;
4138;SDS011;2083;51.034;6.996;2022-08-20T03:35:10;3.30;;;3.10;;
4138;SDS011;2083;51.034;6.996;2022-08-20T03:37:36;3.70;;;3.40;;
4138;SDS011;2083;51.034;6.996;2022-08-20T03:40:04;3.10;;;2.93;;
4138;SDS011;2083;51.034;6.996;2022-08-20T03:42:30;4.23;;;3.03;;
4138;SDS011;2083;51.034;6.996;2022-08-20T03:44:56;3.00;;;2.90;;
4138;SDS011;2083;51.034;6.996;2022-08-20T03:47:22;3.33;;;2.90;;
4138;SDS011;2083;51.034;6.996;2022-08-20T03:49:48;2.80;;;2.70;;
4138;SDS011;2083;51.034;6.996;2022-08-20T03:52:15;3.17;;;2.97;;
4138;SDS011;2083;51.034;6.996;2022-08-20T03:54:41;3.23;;;3.03;;
4138;SDS011;2083;51.034;6.996;2022-08-20T03:57:11;2.87;;;2.77;;
4138;SDS011;2083;51.034;6.996;2022-08-20T03:59:37;3.10;;;2.90;;
4138;SDS011;2083;51.034;6.996;2022-08-20T04:02:03;3.93;;;3.50;;
4138;SDS011;2083;51.034;6.996;2022-08-20T04:04:30;3.20;;;3.00;;
4138;SDS011;2083;51.034;6.996;2022-08-20T04:06:56;4.00;;;2.70;;
4138;SDS011;2083;51.034;6.996;2022-08-20T04:09:22;3.53;;;3.40;;
4138;SDS011;2083;51.034;6.996;2022-08-20T04:11:48;2.87;;;2.77;;
4138;SDS011;2083;51.034;6.996;2022-08-20T04:14:14;6.20;;;3.40;;
4138;SDS011;2083;51.034;6.996;2022-08-20T04:16:40;4.30;;;3.70;;
4138;SDS011;2083;51.034;6.996;2022-08-20T04:19:07;3.63;;;3.50;;
4138;SDS011;2083;51.034;6.996;2022-08-20T04:21:33;3.90;;;3.70;;
4138;SDS011;2083;51.034;6.996;2022-08-20T04:24:00;7.70;;;4.03;;
4138;SDS011;2083;51.034;6.996;2022-08-20T04:26:27;3.73;;;3.23;;
4138;SDS011;2083;51.034;6.996;2022-08-20T04:28:53;3.70;;;3.40;;
4138;SDS011;2083;51.034;6.996;2022-08-20T04:31:19;4.17;;;3.77;;
4138;SDS011;2083;51.034;6.996;2022-08-20T04:33:45;4.07;;;3.80;;
4138;SDS011;2083;51.034;6.996;2022-08-20T04:36:11;4.97;;;4.47;;
4138;SDS011;2083;51.034;6.996;2022-08-20T04:38:38;4.70;;;4.30;;
4138;SDS011;2083;51.034;6.996;2022-08-20T04:41:04;1.83;;;1.77;;
4138;SDS011;2083;51.034;6.996;2022-08-20T04:43:31;5.77;;;5.37;;
4138;SDS011;2083;51.034;6.996;2022-08-20T04:45:58;6.50;;;6.00;;
4138;SDS011;2083;51.034;6.996;2022-08-20T04:48:26;6.90;;;6.20;;
4138;SDS011;2083;51.034;6.996;2022-08-20T04:50:53;7.83;;;5.90;;
4138;SDS011;2083;51.034;6.996;2022-08-20T04:53:20;12.47;;;5.63;;
4138;SDS011;2083;51.034;6.996;2022-08-20T04:55:47;6.50;;;6.00;;
4138;SDS011;2083;51.034;6.996;2022-08-20T04:58:14;5.80;;;5.30;;
4138;SDS011;2083;51.034;6.996;2022-08-20T05:00:52;6.87;;;6.07;;
4138;SDS011;2083;51.034;6.996;2022-08-20T05:03:19;7.93;;;6.10;;
4138;SDS011;2083;51.034;6.996;2022-08-20T05:05:45;3.40;;;3.20;;
4138;SDS011;2083;51.034;6.996;2022-08-20T05:08:11;5.70;;;5.20;;
4138;SDS011;2083;51.034;6.996;2022-08-20T05:10:38;6.00;;;5.43;;
4138;SDS011;2083;51.034;6.996;2022-08-20T05:13:04;3.80;;;3.60;;
4138;SDS011;2083;51.034;6.996;2022-08-20T05:15:31;6.10;;;5.53;;
4138;SDS011;2083;51.034;6.996;2022-08-20T05:17:58;5.93;;;5.40;;
4138;SDS011;2083;51.034;6.996;2022-08-20T05:20:29;4.73;;;4.53;;
4138;SDS011;2083;51.034;6.996;2022-08-20T05:22:55;5.80;;;5.33;;
4138;SDS011;2083;51.034;6.996;2022-08-20T05:25:21;5.50;;;5.10;;
4138;SDS011;2083;51.034;6.996;2022-08-20T05:27:47;4.37;;;4.27;;
4138;SDS011;2083;51.034;6.996;2022-08-20T05:30:13;6.20;;;4.63;;
4138;SDS011;2083;51.034;6.996;2022-08-20T05:32:39;5.30;;;5.00;;
4138;SDS011;2083;51.034;6.996;2022-08-20T05:35:06;5.07;;;4.80;;
4138;SDS011;2083;51.034;6.996;2022-08-20T05:37:37;7.10;;;6.70;;
4138;SDS011;2083;51.034;6.996;2022-08-20T05:40:09;7.50;;;6.83;;
4138;SDS011;2083;51.034;6.996;2022-08-20T05:42:35;8.23;;;7.50;;
4138;SDS011;2083;51.034;6.996;2022-08-20T05:45:02;8.33;;;7.73;;
4138;SDS011;2083;51.034;6.996;2022-08-20T05:47:28;13.83;;;10.40;;
4138;SDS011;2083;51.034;6.996;2022-08-20T05:49:55;12.23;;;10.97;;
4138;SDS011;2083;51.034;6.996;2022-08-20T05:52:21;14.63;;;11.20;;
4138;SDS011;2083;51.034;6.996;2022-08-20T05:54:47;11.60;;;10.40;;
4138;SDS011;2083;51.034;6.996;2022-08-20T05:57:16;16.00;;;11.23;;
4138;SDS011;2083;51.034;6.996;2022-08-20T05:59:46;16.27;;;12.50;;
4138;SDS011;2083;51.034;6.996;2022-08-20T06:02:12;16.47;;;12.57;;
4138;SDS011;2083;51.034;6.996;2022-08-20T06:04:57;17.60;;;12.57;;
4138;SDS011;2083;51.034;6.996;2022-08-20T06:07:23;19.87;;;13.57;;
4138;SDS011;2083;51.034;6.996;2022-08-20T06:09:49;23.20;;;13.87;;
4138;SDS011;2083;51.034;6.996;2022-08-20T06:12:15;27.13;;;15.50;;
4138;SDS011;2083;51.034;6.996;2022-08-20T06:14:42;23.20;;;14.73;;
4138;SDS011;2083;51.034;6.996;2022-08-20T06:17:09;26.60;;;15.60;;
4138;SDS011;2083;51.034;6.996;2022-08-20T06:19:35;27.83;;;15.40;;
4138;SDS011;2083;51.034;6.996;2022-08-20T06:22:02;25.23;;;15.90;;
4138;SDS011;2083;51.034;6.996;2022-08-20T06:24:29;28.37;;;17.43;;
4138;SDS011;2083;51.034;6.996;2022-08-20T06:26:59;31.50;;;17.73;;
4138;SDS011;2083;51.034;6.996;2022-08-20T06:29:25;33.13;;;18.20;;
4138;SDS011;2083;51.034;6.996;2022-08-20T06:31:52;27.00;;;17.13;;
4138;SDS011;2083;51.034;6.996;2022-08-20T06:34:18;24.43;;;16.20;;
4138;SDS011;2083;51.034;6.996;2022-08-20T06:36:44;24.93;;;16.80;;
4138;SDS011;2083;51.034;6.996;2022-08-20T06:39:11;28.77;;;17.17;;
4138;SDS011;2083;51.034;6.996;2022-08-20T06:41:37;26.10;;;18.57;;
4138;SDS011;2083;51.034;6.996;2022-08-20T06:44:03;38.00;;;17.30;;
4138;SDS011;2083;51.034;6.996;2022-08-20T06:46:30;28.43;;;17.50;;
4138;SDS011;2083;51.034;6.996;2022-08-20T06:48:57;26.90;;;16.20;;
4138;SDS011;2083;51.034;6.996;2022-08-20T06:51:22;25.07;;;15.00;;
4138;SDS011;2083;51.034;6.996;2022-08-20T06:53:48;24.00;;;16.57;;
4138;SDS011;2083;51.034;6.996;2022-08-20T06:56:14;22.10;;;16.47;;
4138;SDS011;2083;51.034;6.996;2022-08-20T06:58:40;21.77;;;15.17;;
4138;SDS011;2083;51.034;6.996;2022-08-20T07:01:08;23.43;;;16.30;;
4138;SDS011;2083;51.034;6.996;2022-08-20T07:03:34;21.00;;;15.80;;
4138;SDS011;2083;51.034;6.996;2022-08-20T07:06:02;20.00;;;15.67;;
4138;SDS011;2083;51.034;6.996;2022-08-20T07:08:28;20.53;;;15.37;;
4138;SDS011;2083;51.034;6.996;2022-08-20T07:10:54;18.77;;;15.43;;
4138;SDS011;2083;51.034;6.996;2022-08-20T07:13:21;16.60;;;14.53;;
4138;SDS011;2083;51.034;6.996;2022-08-20T07:15:48;21.80;;;13.93;;
4138;SDS011;2083;51.034;6.996;2022-08-20T07:18:14;19.07;;;14.40;;
4138;SDS011;2083;51.034;6.996;2022-08-20T07:20:40;20.13;;;14.77;;
4138;SDS011;2083;51.034;6.996;2022-08-20T07:23:06;21.27;;;15.03;;
4138;SDS011;2083;51.034;6.996;2022-08-20T07:25:35;24.43;;;16.57;;
4138;SDS011;2083;51.034;6.996;2022-08-20T07:28:06;23.80;;;18.20;;
4138;SDS011;2083;51.034;6.996;2022-08-20T07:30:32;21.73;;;17.90;;
4138;SDS011;2083;51.034;6.996;2022-08-20T07:33:17;24.50;;;18.23;;
4138;SDS011;2083;51.034;6.996;2022-08-20T07:35:43;23.73;;;19.07;;
4138;SDS011;2083;51.034;6.996;2022-08-20T07:38:16;27.67;;;18.87;;
4138;SDS011;2083;51.034;6.996;2022-08-20T07:40:49;20.80;;;17.03;;
4138;SDS011;2083;51.034;6.996;2022-08-20T07:43:15;23.90;;;18.10;;
4138;SDS011;2083;51.034;6.996;2022-08-20T07:45:41;23.70;;;17.50;;
4138;SDS011;2083;51.034;6.996;2022-08-20T07:48:08;25.00;;;17.17;;
4138;SDS011;2083;51.034;6.996;2022-08-20T07:50:34;21.00;;;18.20;;
4138;SDS011;2083;51.034;6.996;2022-08-20T07:53:00;23.37;;;18.80;;
4138;SDS011;2083;51.034;6.996;2022-08-20T07:55:26;27.30;;;18.03;;
4138;SDS011;2083;51.034;6.996;2022-08-20T07:57:54;26.60;;;17.50;;
4138;SDS011;2083;51.034;6.996;2022-08-20T08:00:22;20.93;;;17.07;;
4138;SDS011;2083;51.034;6.996;2022-08-20T08:02:48;23.40;;;17.17;;
4138;SDS011;2083;51.034;6.996;2022-08-20T08:05:14;21.90;;;16.93;;
4138;SDS011;2083;51.034;6.996;2022-08-20T08:07:41;28.63;;;18.60;;
4138;SDS011;2083;51.034;6.996;2022-08-20T08:10:08;29.93;;;18.40;;
4138;SDS011;2083;51.034;6.996;2022-08-20T08:12:36;32.07;;;19.53;;
4138;SDS011;2083;51.034;6.996;2022-08-20T08:15:04;28.60;;;19.17;;
4138;SDS011;2083;51.034;6.996;2022-08-20T08:17:31;34.77;;;21.00;;
4138;SDS011;2083;51.034;6.996;2022-08-20T08:19:57;36.03;;;23.30;;
4138;SDS011;2083;51.034;6.996;2022-08-20T08:22:24;0.93;;;0.87;;
4138;SDS011;2083;51.034;6.996;2022-08-20T08:24:50;42.70;;;24.60;;
4138;SDS011;2083;51.034;6.996;2022-08-20T08:27:16;40.40;;;25.80;;
4138;SDS011;2083;51.034;6.996;2022-08-20T08:29:42;43.47;;;23.90;;
4138;SDS011;2083;51.034;6.996;2022-08-20T08:32:10;39.30;;;24.43;;
4138;SDS011;2083;51.034;6.996;2022-08-20T08:34:36;39.70;;;22.17;;
4138;SDS011;2083;51.034;6.996;2022-08-20T08:37:03;38.70;;;24.47;;
4138;SDS011;2083;51.034;6.996;2022-08-20T08:39:30;31.60;;;22.33;;
4138;SDS011;2083;51.034;6.996;2022-08-20T08:41:56;31.83;;;20.87;;
4138;SDS011;2083;51.034;6.996;2022-08-20T08:44:26;38.13;;;22.50;;
4138;SDS011;2083;51.034;6.996;2022-08-20T08:47:03;37.17;;;24.23;;
4138;SDS011;2083;51.034;6.996;2022-08-20T08:49:42;41.90;;;24.00;;
4138;SDS011;2083;51.034;6.996;2022-08-20T08:52:11;42.30;;;26.70;;
4138;SDS011;2083;51.034;6.996;2022-08-20T08:54:40;56.50;;;29.50;;
4138;SDS011;2083;51.034;6.996;2022-08-20T08:57:07;48.93;;;29.67;;
4138;SDS011;2083;51.034;6.996;2022-08-20T08:59:34;49.67;;;28.87;;
4138;SDS011;2083;51.034;6.996;2022-08-20T09:02:00;46.27;;;28.50;;
4138;SDS011;2083;51.034;6.996;2022-08-20T09:04:31;45.40;;;27.60;;
4138;SDS011;2083;51.034;6.996;2022-08-20T09:06:58;41.13;;;25.70;;
4138;SDS011;2083;51.034;6.996;2022-08-20T09:09:28;43.20;;;24.47;;
4138;SDS011;2083;51.034;6.996;2022-08-20T09:11:55;41.50;;;25.40;;
4138;SDS011;2083;51.034;6.996;2022-08-20T09:14:21;43.43;;;28.47;;
4138;SDS011;2083;51.034;6.996;2022-08-20T09:16:50;52.87;;;29.00;;
4138;SDS011;2083;51.034;6.996;2022-08-20T09:19:16;44.57;;;27.97;;
4138;SDS011;2083;51.034;6.996;2022-08-20T09:21:42;47.40;;;28.13;;
4138;SDS011;2083;51.034;6.996;2022-08-20T09:24:08;44.20;;;27.43;;
4138;SDS011;2083;51.034;6.996;2022-08-20T09:26:34;37.03;;;23.10;;
4138;SDS011;2083;51.034;6.996;2022-08-20T09:29:00;37.77;;;22.80;;
4138;SDS011;2083;51.034;6.996;2022-08-20T09:31:26;36.60;;;23.80;;
4138;SDS011;2083;51.034;6.996;2022-08-20T09:33:52;38.73;;;24.70;;
4138;SDS011;2083;51.034;6.996;2022-08-20T09:36:18;33.23;;;22.33;;
4138;SDS011;2083;51.034;6.996;2022-08-20T09:38:44;46.33;;;23.23;;
4138;SDS011;2083;51.034;6.996;2022-08-20T09:41:11;35.07;;;21.50;;
4138;SDS011;2083;51.034;6.996;2022-08-20T09:43:36;36.27;;;21.63;;
4138;SDS011;2083;51.034;6.996;2022-08-20T09:46:03;33.00;;;18.53;;
4138;SDS011;2083;51.034;6.996;2022-08-20T09:48:28;28.20;;;18.77;;
4138;SDS011;2083;51.034;6.996;2022-08-20T09:50:54;24.57;;;18.60;;
4138;SDS011;2083;51.034;6.996;2022-08-20T09:53:21;31.53;;;20.70;;
4138;SDS011;2083;51.034;6.996;2022-08-20T09:55:49;31.40;;;20.63;;
4138;SDS011;2083;51.034;6.996;2022-08-20T10:00:50;26.20;;;18.73;;
4138;SDS011;2083;51.034;6.996;2022-08-20T10:03:16;29.17;;;18.73;;
4138;SDS011;2083;51.034;6.996;2022-08-20T10:05:42;32.03;;;20.60;;
4138;SDS011;2083;51.034;6.996;2022-08-20T10:08:09;27.10;;;18.50;;
4138;SDS011;2083;51.034;6.996;2022-08-20T10:10:35;20.87;;;17.13;;
4138;SDS011;2083;51.034;6.996;2022-08-20T10:13:02;27.77;;;13.80;;
4138;SDS011;2083;51.034;6.996;2022-08-20T10:15:28;22.30;;;14.03;;
4138;SDS011;2083;51.034;6.996;2022-08-20T10:17:54;21.33;;;12.77;;
4138;SDS011;2083;51.034;6.996;2022-08-20T10:20:21;15.23;;;11.20;;
4138;SDS011;2083;51.034;6.996;2022-08-20T10:22:47;22.70;;;11.70;;
4138;SDS011;2083;51.034;6.996;2022-08-20T10:25:13;25.47;;;12.63;;
4138;SDS011;2083;51.034;6.996;2022-08-20T10:27:42;23.50;;;11.90;;
4138;SDS011;2083;51.034;6.996;2022-08-20T10:30:08;17.73;;;11.27;;
4138;SDS011;2083;51.034;6.996;2022-08-20T10:32:34;18.00;;;11.97;;
4138;SDS011;2083;51.034;6.996;2022-08-20T10:35:00;21.57;;;12.03;;
4138;SDS011;2083;51.034;6.996;2022-08-20T10:37:26;18.10;;;11.53;;
4138;SDS011;2083;51.034;6.996;2022-08-20T10:39:53;23.37;;;10.93;;
4138;SDS011;2083;51.034;6.996;2022-08-20T10:42:19;13.73;;;9.90;;
4138;SDS011;2083;51.034;6.996;2022-08-20T10:44:45;15.30;;;9.73;;
4138;SDS011;2083;51.034;6.996;2022-08-20T10:47:15;18.40;;;8.37;;
4138;SDS011;2083;51.034;6.996;2022-08-20T10:49:41;13.73;;;9.07;;
4138;SDS011;2083;51.034;6.996;2022-08-20T10:52:07;11.40;;;8.20;;
4138;SDS011;2083;51.034;6.996;2022-08-20T10:54:33;12.97;;;7.90;;
4138;SDS011;2083;51.034;6.996;2022-08-20T10:57:05;16.87;;;8.33;;
4138;SDS011;2083;51.034;6.996;2022-08-20T10:59:31;11.20;;;8.67;;
4138;SDS011;2083;51.034;6.996;2022-08-20T11:01:58;20.10;;;8.53;;
4138;SDS011;2083;51.034;6.996;2022-08-20T11:04:24;13.40;;;8.87;;
4138;SDS011;2083;51.034;6.996;2022-08-20T11:06:50;14.03;;;8.80;;
4138;SDS011;2083;51.034;6.996;2022-08-20T11:09:16;9.30;;;7.03;;
4138;SDS011;2083;51.034;6.996;2022-08-20T11:11:42;9.03;;;6.13;;
4138;SDS011;2083;51.034;6.996;2022-08-20T11:14:08;9.70;;;7.03;;
4138;SDS011;2083;51.034;6.996;2022-08-20T11:16:34;10.90;;;7.23;;
4138;SDS011;2083;51.034;6.996;2022-08-20T11:19:00;10.90;;;6.30;;
4138;SDS011;2083;51.034;6.996;2022-08-20T11:21:26;10.40;;;7.23;;
4138;SDS011;2083;51.034;6.996;2022-08-20T11:23:52;8.23;;;6.80;;
4138;SDS011;2083;51.034;6.996;2022-08-20T11:26:20;7.50;;;6.40;;
4138;SDS011;2083;51.034;6.996;2022-08-20T11:28:46;18.23;;;5.97;;
4138;SDS011;2083;51.034;6.996;2022-08-20T11:31:13;9.80;;;8.20;;
4138;SDS011;2083;51.034;6.996;2022-08-20T11:33:39;14.30;;;8.30;;
4138;SDS011;2083;51.034;6.996;2022-08-20T11:36:05;11.20;;;7.37;;
4138;SDS011;2083;51.034;6.996;2022-08-20T11:38:31;6.63;;;5.13;;
4138;SDS011;2083;51.034;6.996;2022-08-20T11:40:57;9.50;;;5.63;;
4138;SDS011;2083;51.034;6.996;2022-08-20T11:43:23;10.20;;;7.53;;
4138;SDS011;2083;51.034;6.996;2022-08-20T11:45:50;10.40;;;6.80;;
4138;SDS011;2083;51.034;6.996;2022-08-20T11:48:17;12.50;;;7.27;;
4138;SDS011;2083;51.034;6.996;2022-08-20T11:50:43;11.13;;;6.90;;
4138;SDS011;2083;51.034;6.996;2022-08-20T11:53:09;13.77;;;7.70;;
4138;SDS011;2083;51.034;6.996;2022-08-20T11:55:35;11.93;;;7.60;;
4138;SDS011;2083;51.034;6.996;2022-08-20T11:58:02;16.63;;;8.10;;
4138;SDS011;2083;51.034;6.996;2022-08-20T12:00:29;12.93;;;7.10;;
4138;SDS011;2083;51.034;6.996;2022-08-20T12:02:55;11.43;;;8.53;;
4138;SDS011;2083;51.034;6.996;2022-08-20T12:05:21;15.53;;;9.20;;
4138;SDS011;2083;51.034;6.996;2022-08-20T12:07:47;15.07;;;9.50;;
4138;SDS011;2083;51.034;6.996;2022-08-20T12:10:13;10.60;;;8.40;;
4138;SDS011;2083;51.034;6.996;2022-08-20T12:12:39;20.03;;;9.90;;
4138;SDS011;2083;51.034;6.996;2022-08-20T12:15:06;16.50;;;10.23;;
4138;SDS011;2083;51.034;6.996;2022-08-20T12:17:33;18.40;;;11.50;;
4138;SDS011;2083;51.034;6.996;2022-08-20T12:20:00;17.33;;;10.57;;
4138;SDS011;2083;51.034;6.996;2022-08-20T12:22:26;28.67;;;10.70;;
4138;SDS011;2083;51.034;6.996;2022-08-20T12:24:53;15.33;;;8.70;;
4138;SDS011;2083;51.034;6.996;2022-08-20T12:29:46;14.43;;;8.47;;
4138;SDS011;2083;51.034;6.996;2022-08-20T12:32:12;14.90;;;7.90;;
4138;SDS011;2083;51.034;6.996;2022-08-20T12:34:39;14.77;;;7.87;;
4138;SDS011;2083;51.034;6.996;2022-08-20T12:37:09;17.60;;;8.67;;
4138;SDS011;2083;51.034;6.996;2022-08-20T12:39:39;8.93;;;8.03;;
4138;SDS011;2083;51.034;6.996;2022-08-20T12:42:05;11.37;;;7.03;;
4138;SDS011;2083;51.034;6.996;2022-08-20T12:44:32;13.90;;;7.37;;
4138;SDS011;2083;51.034;6.996;2022-08-20T12:47:05;19.97;;;8.17;;
4138;SDS011;2083;51.034;6.996;2022-08-20T12:49:31;13.40;;;8.20;;
4138;SDS011;2083;51.034;6.996;2022-08-20T12:51:57;7.53;;;6.83;;
4138;SDS011;2083;51.034;6.996;2022-08-20T12:54:24;14.23;;;7.27;;
4138;SDS011;2083;51.034;6.996;2022-08-20T12:56:50;11.10;;;7.03;;
4138;SDS011;2083;51.034;6.996;2022-08-20T12:59:16;11.90;;;7.63;;
4138;SDS011;2083;51.034;6.996;2022-08-20T13:01:42;11.93;;;8.47;;
4138;SDS011;2083;51.034;6.996;2022-08-20T13:04:08;18.37;;;9.80;;
4138;SDS011;2083;51.034;6.996;2022-08-20T13:06:34;11.80;;;7.83;;
4138;SDS011;2083;51.034;6.996;2022-08-20T13:09:00;13.27;;;8.27;;
4138;SDS011;2083;51.034;6.996;2022-08-20T13:11:26;18.00;;;8.90;;
4138;SDS011;2083;51.034;6.996;2022-08-20T13:13:52;9.70;;;7.77;;
4138;SDS011;2083;51.034;6.996;2022-08-20T13:16:18;13.13;;;6.40;;
4138;SDS011;2083;51.034;6.996;2022-08-20T13:18:44;11.17;;;6.87;;
4138;SDS011;2083;51.034;6.996;2022-08-20T13:21:11;11.20;;;6.33;;
4138;SDS011;2083;51.034;6.996;2022-08-20T13:23:36;17.33;;;6.50;;
4138;SDS011;2083;51.034;6.996;2022-08-20T13:26:02;18.17;;;6.53;;
4138;SDS011;2083;51.034;6.996;2022-08-20T13:28:29;11.03;;;8.13;;
4138;SDS011;2083;51.034;6.996;2022-08-20T13:30:55;11.63;;;7.87;;
4138;SDS011;2083;51.034;6.996;2022-08-20T13:33:21;12.53;;;5.77;;
4138;SDS011;2083;51.034;6.996;2022-08-20T13:35:48;12.00;;;6.67;;
4138;SDS011;2083;51.034;6.996;2022-08-20T13:38:14;10.83;;;6.60;;
4138;SDS011;2083;51.034;6.996;2022-08-20T13:40:41;16.23;;;7.70;;
4138;SDS011;2083;51.034;6.996;2022-08-20T13:43:07;8.90;;;6.13;;
4138;SDS011;2083;51.034;6.996;2022-08-20T13:45:34;14.07;;;6.30;;
4138;SDS011;2083;51.034;6.996;2022-08-20T13:48:00;26.77;;;6.27;;
4138;SDS011;2083;51.034;6.996;2022-08-20T13:50:26;8.90;;;5.10;;
4138;SDS011;2083;51.034;6.996;2022-08-20T13:52:52;16.13;;;5.43;;
4138;SDS011;2083;51.034;6.996;2022-08-20T13:55:18;14.37;;;6.50;;
4138;SDS011;2083;51.034;6.996;2022-08-20T13:57:45;7.87;;;5.63;;
4138;SDS011;2083;51.034;6.996;2022-08-20T14:00:13;9.47;;;5.00;;
4138;SDS011;2083;51.034;6.996;2022-08-20T14:02:40;31.70;;;5.80;;
4138;SDS011;2083;51.034;6.996;2022-08-20T14:05:07;16.70;;;5.27;;
4138;SDS011;2083;51.034;6.996;2022-08-20T14:07:33;8.87;;;4.17;;
4138;SDS011;2083;51.034;6.996;2022-08-20T14:10:01;7.37;;;4.17;;
4138;SDS011;2083;51.034;6.996;2022-08-20T14:12:29;6.87;;;4.30;;
4138;SDS011;2083;51.034;6.996;2022-08-20T14:14:55;9.83;;;5.30;;
4138;SDS011;2083;51.034;6.996;2022-08-20T14:17:25;5.57;;;3.10;;
4138;SDS011;2083;51.034;6.996;2022-08-20T14:19:53;5.50;;;2.90;;
4138;SDS011;2083;51.034;6.996;2022-08-20T14:22:19;6.80;;;3.60;;
4138;SDS011;2083;51.034;6.996;2022-08-20T14:24:46;6.70;;;3.90;;
4138;SDS011;2083;51.034;6.996;2022-08-20T14:27:12;13.77;;;4.73;;
4138;SDS011;2083;51.034;6.996;2022-08-20T14:29:40;13.10;;;3.57;;
4138;SDS011;2083;51.034;6.996;2022-08-20T14:32:06;10.60;;;4.47;;
4138;SDS011;2083;51.034;6.996;2022-08-20T14:34:32;12.47;;;4.00;;
4138;SDS011;2083;51.034;6.996;2022-08-20T14:37:09;11.70;;;4.00;;
4138;SDS011;2083;51.034;6.996;2022-08-20T14:39:35;6.87;;;3.70;;
4138;SDS011;2083;51.034;6.996;2022-08-20T14:42:01;8.77;;;4.30;;
4138;SDS011;2083;51.034;6.996;2022-08-20T14:44:27;14.90;;;4.70;;
4138;SDS011;2083;51.034;6.996;2022-08-20T14:46:53;10.23;;;4.03;;
4138;SDS011;2083;51.034;6.996;2022-08-20T14:49:20;7.03;;;3.77;;
4138;SDS011;2083;51.034;6.996;2022-08-20T14:51:46;13.20;;;4.00;;
4138;SDS011;2083;51.034;6.996;2022-08-20T14:54:11;9.23;;;3.60;;
4138;SDS011;2083;51.034;6.996;2022-08-20T14:56:37;7.70;;;3.73;;
4138;SDS011;2083;51.034;6.996;2022-08-20T14:59:03;5.37;;;3.70;;
4138;SDS011;2083;51.034;6.996;2022-08-20T15:01:29;15.93;;;3.57;;
4138;SDS011;2083;51.034;6.996;2022-08-20T15:03:55;6.47;;;3.40;;
4138;SDS011;2083;51.034;6.996;2022-08-20T15:06:21;12.20;;;4.10;;